Time;durP1;ratioP1;P1;durP2;ratioP2;P2;SDS_P1;SDS_P2;PMS_P1;PMS_P2;Temp;Humidity;BMP_temperature;BMP_pressure;BME280_temperature;BME280_humidity;BME280_pressure;Samples;Min_cycle;Max_cycle;Signal;HPM_P1;HPM_P2
2023/08/29 00:01:47;;;;;;;0.00;0.00;;;;;;;;;;6248126;28;20033;-85
2023/08/29 00:04:47;;;;;;;0.08;0.08;;;;;;;;;;6272051;28;20418;-85
2023/08/29 00:07:47;;;;;;;0.00;0.00;;;;;;;;;;6263359;28;20013;-87
2023/08/29 00:10:54;;;;;;;0.10;0.10;;;;;;;;;;6269113;28;20124;-86
2023/08/29 00:13:54;;;;;;;0.00;0.00;;;;;;;;;;6268666;28;20391;-85
2023/08/29 00:16:55;;;;;;;0.10;0.10;;;;;;;;;;6265357;28;20033;-86
2023/08/29 00:19:55;;;;;;;0.10;0.10;;;;;;;;;;6265184;28;20474;-85
2023/08/29 00:22:55;;;;;;;0.00;0.00;;;;;;;;;;6267672;28;20493;-85
2023/08/29 00:25:55;;;;;;;0.00;0.00;;;;;;;;;;6249723;28;20029;-84
2023/08/29 00:28:56;;;;;;;0.00;0.00;;;;;;;;;;6264263;28;20025;-87
2023/08/29 00:31:56;;;;;;;0.10;0.10;;;;;;;;;;6247753;28;20025;-87
2023/08/29 00:34:57;;;;;;;0.00;0.00;;;;;;;;;;6265234;28;20032;-87
2023/08/29 00:37:58;;;;;;;0.00;0.00;;;;;;;;;;6257456;28;20025;-87
2023/08/29 00:40:59;;;;;;;0.00;0.00;;;;;;;;;;6268908;28;20494;-87
2023/08/29 00:43:59;;;;;;;0.00;0.00;;;;;;;;;;6267736;28;20107;-88
2023/08/29 00:46:59;;;;;;;0.00;0.00;;;;;;;;;;6250593;28;20032;-86
2023/08/29 00:50:00;;;;;;;0.10;0.10;;;;;;;;;;6248957;28;20017;-87
2023/08/29 00:53:04;;;;;;;0.10;0.10;;;;;;;;;;6267988;28;20088;-88
2023/08/29 00:56:04;;;;;;;0.00;0.00;;;;;;;;;;6262920;28;20503;-87
2023/08/29 00:59:05;;;;;;;0.10;0.10;;;;;;;;;;6232901;28;20116;-87
2023/08/29 01:02:05;;;;;;;0.03;0.03;;;;;;;;;;6268778;28;20090;-87
2023/08/29 01:05:05;;;;;;;0.00;0.00;;;;;;;;;;6269493;28;20036;-87
2023/08/29 01:08:06;;;;;;;0.10;0.10;;;;;;;;;;6263568;28;20555;-86
2023/08/29 01:11:11;;;;;;;0.00;0.00;;;;;;;;;;6264244;28;20048;-86
2023/08/29 01:14:17;;;;;;;0.10;0.10;;;;;;;;;;6267051;28;20020;-86
2023/08/29 01:17:22;;;;;;;0.10;0.10;;;;;;;;;;6265573;28;20040;-86
2023/08/29 01:20:23;;;;;;;0.00;0.00;;;;;;;;;;6267567;28;20028;-86
2023/08/29 01:23:42;;;;;;;0.00;0.00;;;;;;;;;;6248960;28;20017;-86
2023/08/29 01:26:43;;;;;;;0.10;0.10;;;;;;;;;;6261264;28;20488;-86
2023/08/29 01:29:46;;;;;;;0.10;0.10;;;;;;;;;;6260647;28;20476;-86
2023/08/29 01:32:46;;;;;;;0.00;0.00;;;;;;;;;;6267357;28;20155;-86
2023/08/29 01:35:46;;;;;;;0.10;0.10;;;;;;;;;;6266078;28;20024;-86
2023/08/29 01:38:47;;;;;;;0.10;0.10;;;;;;;;;;6247112;28;20021;-84
2023/08/29 01:41:47;;;;;;;0.00;0.00;;;;;;;;;;6267065;28;20391;-83
2023/08/29 01:44:47;;;;;;;0.10;0.10;;;;;;;;;;6265313;28;20033;-84
2023/08/29 01:47:47;;;;;;;0.00;0.00;;;;;;;;;;6248983;28;20021;-84
2023/08/29 01:50:48;;;;;;;0.00;0.00;;;;;;;;;;6266346;28;20017;-84
2023/08/29 01:53:48;;;;;;;0.00;0.00;;;;;;;;;;6248168;28;20032;-84
2023/08/29 01:56:49;;;;;;;0.10;0.10;;;;;;;;;;6264643;28;20032;-84
2023/08/29 01:59:50;;;;;;;0.00;0.00;;;;;;;;;;6249427;28;20086;-84
2023/08/29 02:02:51;;;;;;;0.00;0.00;;;;;;;;;;6248843;28;20056;-84
2023/08/29 02:05:51;;;;;;;0.10;0.10;;;;;;;;;;6248949;28;20402;-85
2023/08/29 02:08:51;;;;;;;0.10;0.10;;;;;;;;;;6263249;28;20434;-85
2023/08/29 02:11:51;;;;;;;0.00;0.00;;;;;;;;;;6248264;28;20056;-85
2023/08/29 02:14:52;;;;;;;0.10;0.10;;;;;;;;;;6265979;28;20033;-85
2023/08/29 02:17:53;;;;;;;0.10;0.10;;;;;;;;;;6260305;28;20080;-85
2023/08/29 02:20:53;;;;;;;0.00;0.00;;;;;;;;;;6266377;28;20031;-84
2023/08/29 02:23:53;;;;;;;0.00;0.00;;;;;;;;;;6242592;28;20383;-84
2023/08/29 02:26:53;;;;;;;0.10;0.10;;;;;;;;;;6265326;28;20471;-85
2023/08/29 02:29:54;;;;;;;0.00;0.00;;;;;;;;;;6264953;28;20044;-85
2023/08/29 02:32:54;;;;;;;0.00;0.00;;;;;;;;;;6248132;28;20027;-85
2023/08/29 02:35:54;;;;;;;0.00;0.00;;;;;;;;;;6259809;28;20056;-85
2023/08/29 02:38:55;;;;;;;0.00;0.00;;;;;;;;;;6266095;28;20131;-85
2023/08/29 02:41:55;;;;;;;0.10;0.10;;;;;;;;;;6261516;28;20078;-84
2023/08/29 02:44:55;;;;;;;0.10;0.10;;;;;;;;;;6265793;28;20029;-85
2023/08/29 02:47:55;;;;;;;0.00;0.00;;;;;;;;;;6267648;28;20556;-85
2023/08/29 02:50:56;;;;;;;0.00;0.00;;;;;;;;;;6253260;28;20494;-84
2023/08/29 02:53:56;;;;;;;0.10;0.10;;;;;;;;;;6253354;28;20032;-85
2023/08/29 02:56:56;;;;;;;0.10;0.10;;;;;;;;;;6271042;28;20033;-85
2023/08/29 02:59:58;;;;;;;0.00;0.00;;;;;;;;;;6253007;28;20055;-85
2023/08/29 03:02:58;;;;;;;0.08;0.08;;;;;;;;;;6254436;28;20123;-85
2023/08/29 03:05:59;;;;;;;0.00;0.00;;;;;;;;;;6275037;28;20039;-85
2023/08/29 03:08:59;;;;;;;0.10;0.10;;;;;;;;;;6252403;28;20074;-85
2023/08/29 03:11:59;;;;;;;0.10;0.10;;;;;;;;;;6252450;28;20131;-85
2023/08/29 03:15:00;;;;;;;0.10;0.10;;;;;;;;;;6270281;28;20024;-85
2023/08/29 03:18:00;;;;;;;0.00;0.00;;;;;;;;;;6271468;28;20707;-85
2023/08/29 03:21:06;;;;;;;0.10;0.10;;;;;;;;;;6252666;28;20066;-85
2023/08/29 03:24:08;;;;;;;0.10;0.10;;;;;;;;;;6270725;28;20082;-85
2023/08/29 03:27:08;;;;;;;0.00;0.00;;;;;;;;;;6252209;28;20025;-85
2023/08/29 03:30:08;;;;;;;0.10;0.10;;;;;;;;;;6270521;28;20009;-85
2023/08/29 03:33:09;;;;;;;0.10;0.10;;;;;;;;;;6271128;28;20021;-85
2023/08/29 03:36:09;;;;;;;0.10;0.10;;;;;;;;;;6269819;28;20025;-85
2023/08/29 03:39:11;;;;;;;0.00;0.00;;;;;;;;;;6252707;28;20116;-85
2023/08/29 03:42:11;;;;;;;0.00;0.00;;;;;;;;;;6269947;28;20017;-85
2023/08/29 03:45:11;;;;;;;0.10;0.10;;;;;;;;;;6252031;28;20025;-85
2023/08/29 03:48:11;;;;;;;0.10;0.10;;;;;;;;;;6251933;28;20059;-85
2023/08/29 03:51:12;;;;;;;0.10;0.10;;;;;;;;;;6251397;28;20017;-85
2023/08/29 03:54:12;;;;;;;0.10;0.10;;;;;;;;;;6251602;28;20021;-85
2023/08/29 03:57:12;;;;;;;0.00;0.00;;;;;;;;;;6251822;28;20047;-85
2023/08/29 04:00:13;;;;;;;0.10;0.10;;;;;;;;;;6249280;28;20048;-85
2023/08/29 04:03:13;;;;;;;0.10;0.10;;;;;;;;;;6266031;28;20028;-85
2023/08/29 04:06:17;;;;;;;0.00;0.00;;;;;;;;;;6266319;28;20123;-85
2023/08/29 04:09:18;;;;;;;0.00;0.00;;;;;;;;;;6266476;28;20029;-85
2023/08/29 04:12:18;;;;;;;0.00;0.00;;;;;;;;;;6248227;28;20167;-85
2023/08/29 04:15:19;;;;;;;0.00;0.00;;;;;;;;;;6268543;28;20024;-85
2023/08/29 04:18:19;;;;;;;0.00;0.00;;;;;;;;;;6268751;28;20017;-85
2023/08/29 04:21:19;;;;;;;0.00;0.00;;;;;;;;;;6268661;28;20116;-85
2023/08/29 04:24:19;;;;;;;0.00;0.00;;;;;;;;;;6250701;28;20459;-85
2023/08/29 04:27:20;;;;;;;0.00;0.00;;;;;;;;;;6267785;28;20045;-85
2023/08/29 04:30:20;;;;;;;0.00;0.00;;;;;;;;;;6259203;28;20024;-85
2023/08/29 04:33:20;;;;;;;0.10;0.10;;;;;;;;;;6247819;28;20036;-85
2023/08/29 04:36:21;;;;;;;0.00;0.00;;;;;;;;;;6268221;28;20016;-85
2023/08/29 04:39:23;;;;;;;0.00;0.00;;;;;;;;;;6268775;28;20025;-85
2023/08/29 04:42:24;;;;;;;0.00;0.00;;;;;;;;;;6249148;28;20052;-85
2023/08/29 04:45:24;;;;;;;0.10;0.10;;;;;;;;;;6268955;28;20074;-85
2023/08/29 04:48:24;;;;;;;0.00;0.00;;;;;;;;;;6251216;28;20029;-85
2023/08/29 04:51:24;;;;;;;0.10;0.10;;;;;;;;;;6250703;28;20032;-85
2023/08/29 04:54:25;;;;;;;0.00;0.00;;;;;;;;;;6268469;28;20029;-86
2023/08/29 04:57:25;;;;;;;0.00;0.00;;;;;;;;;;6269015;28;20365;-85
2023/08/29 05:00:26;;;;;;;0.00;0.00;;;;;;;;;;6249070;28;20021;-85
2023/08/29 05:03:26;;;;;;;0.00;0.00;;;;;;;;;;6262236;28;20460;-85
2023/08/29 05:06:26;;;;;;;0.00;0.00;;;;;;;;;;6249988;28;20428;-86
2023/08/29 05:09:27;;;;;;;0.10;0.10;;;;;;;;;;6267915;28;20024;-85
2023/08/29 05:12:27;;;;;;;0.00;0.00;;;;;;;;;;6267427;28;20052;-85
2023/08/29 05:15:28;;;;;;;0.00;0.00;;;;;;;;;;6265907;28;20486;-85
2023/08/29 05:18:29;;;;;;;0.00;0.00;;;;;;;;;;6267261;28;20483;-85
2023/08/29 05:21:29;;;;;;;0.00;0.00;;;;;;;;;;6250024;28;20056;-85
2023/08/29 05:24:29;;;;;;;0.10;0.10;;;;;;;;;;6248787;28;20029;-86
2023/08/29 05:27:29;;;;;;;0.00;0.00;;;;;;;;;;6248128;28;20464;-85
2023/08/29 05:30:30;;;;;;;0.10;0.10;;;;;;;;;;6268012;28;20071;-85
2023/08/29 05:33:31;;;;;;;0.10;0.10;;;;;;;;;;6247788;28;20021;-86
2023/08/29 05:36:31;;;;;;;0.10;0.10;;;;;;;;;;6265276;28;20032;-85
2023/08/29 05:39:31;;;;;;;0.00;0.00;;;;;;;;;;6249491;28;20122;-86
2023/08/29 05:42:31;;;;;;;0.00;0.00;;;;;;;;;;6267222;28;20494;-86
2023/08/29 05:45:32;;;;;;;0.00;0.00;;;;;;;;;;6267276;28;20036;-85
2023/08/29 05:48:32;;;;;;;0.00;0.00;;;;;;;;;;6267335;28;20032;-86
2023/08/29 05:51:32;;;;;;;0.00;0.00;;;;;;;;;;6249371;28;20033;-86
2023/08/29 05:54:36;;;;;;;0.00;0.00;;;;;;;;;;6267342;28;20032;-86
2023/08/29 05:57:36;;;;;;;0.10;0.10;;;;;;;;;;6265442;28;20470;-85
2023/08/29 06:00:37;;;;;;;0.00;0.00;;;;;;;;;;6266268;28;20032;-85
2023/08/29 06:03:37;;;;;;;0.00;0.00;;;;;;;;;;6263022;28;20020;-85
2023/08/29 06:06:40;;;;;;;0.10;0.10;;;;;;;;;;6262944;28;20649;-86
2023/08/29 06:09:40;;;;;;;0.00;0.00;;;;;;;;;;6266819;28;20025;-86
2023/08/29 06:12:40;;;;;;;0.00;0.00;;;;;;;;;;6266760;28;20119;-84
2023/08/29 06:15:40;;;;;;;0.10;0.10;;;;;;;;;;6266422;28;20098;-85
2023/08/29 06:18:40;;;;;;;0.10;0.10;;;;;;;;;;6265839;28;20087;-85
2023/08/29 06:21:41;;;;;;;0.10;0.10;;;;;;;;;;6261228;28;20108;-85
2023/08/29 06:24:41;;;;;;;0.00;0.00;;;;;;;;;;6259850;28;20024;-84
2023/08/29 06:27:41;;;;;;;0.00;0.00;;;;;;;;;;6256909;28;20074;-85
2023/08/29 06:30:41;;;;;;;0.00;0.00;;;;;;;;;;6274631;28;20025;-84
2023/08/29 06:33:42;;;;;;;0.00;0.00;;;;;;;;;;6275558;28;20017;-85
2023/08/29 06:36:42;;;;;;;0.00;0.00;;;;;;;;;;6276099;28;20025;-85
2023/08/29 06:39:42;;;;;;;0.00;0.00;;;;;;;;;;6263283;28;20029;-85
2023/08/29 06:42:43;;;;;;;0.00;0.00;;;;;;;;;;6270767;28;20476;-84
2023/08/29 06:45:43;;;;;;;0.00;0.00;;;;;;;;;;6274892;28;20044;-85
2023/08/29 06:48:43;;;;;;;0.00;0.00;;;;;;;;;;6256033;28;20484;-84
2023/08/29 06:51:43;;;;;;;0.10;0.10;;;;;;;;;;6271517;28;20020;-85
2023/08/29 06:55:00;;;;;;;0.10;0.10;;;;;;;;;;6274255;28;20054;-93
2023/08/29 06:58:01;;;;;;;0.00;0.00;;;;;;;;;;6269435;28;20547;-92
2023/08/29 07:01:02;;;;;;;0.10;0.10;;;;;;;;;;6258477;28;20095;-94
2023/08/29 07:04:03;;;;;;;0.10;0.10;;;;;;;;;;6255034;28;20016;-92
2023/08/29 07:07:03;;;;;;;0.10;0.10;;;;;;;;;;6258995;28;20051;-92
2023/08/29 07:10:04;;;;;;;0.10;0.10;;;;;;;;;;6257601;28;20103;-91
2023/08/29 07:13:05;;;;;;;0.10;0.10;;;;;;;;;;6259541;28;20016;-91
2023/08/29 07:16:05;;;;;;;0.00;0.00;;;;;;;;;;6257098;28;20561;-89
2023/08/29 07:19:06;;;;;;;0.00;0.00;;;;;;;;;;6250783;28;20044;-89
2023/08/29 07:22:06;;;;;;;0.00;0.00;;;;;;;;;;6264525;28;20028;-89
2023/08/29 07:25:06;;;;;;;0.00;0.00;;;;;;;;;;6257889;28;20075;-90
2023/08/29 07:28:08;;;;;;;0.10;0.10;;;;;;;;;;6258071;28;20491;-89
2023/08/29 07:31:08;;;;;;;0.00;0.00;;;;;;;;;;6259171;28;20024;-89
2023/08/29 07:34:08;;;;;;;0.00;0.00;;;;;;;;;;6266353;28;20567;-90
2023/08/29 07:37:08;;;;;;;0.10;0.10;;;;;;;;;;6250873;28;20553;-90
2023/08/29 07:40:09;;;;;;;0.10;0.10;;;;;;;;;;6264914;28;20013;-89
2023/08/29 07:43:10;;;;;;;0.05;0.05;;;;;;;;;;6252326;28;20564;-90
2023/08/29 07:46:10;;;;;;;0.00;0.00;;;;;;;;;;6264905;28;20024;-90
2023/08/29 07:49:13;;;;;;;0.00;0.00;;;;;;;;;;6259301;28;20087;-89
2023/08/29 07:52:13;;;;;;;0.03;0.03;;;;;;;;;;6258711;28;20843;-89
2023/08/29 07:55:14;;;;;;;0.00;0.00;;;;;;;;;;6270204;28;20016;-87
2023/08/29 07:58:14;;;;;;;0.00;0.00;;;;;;;;;;6266529;28;20549;-88
2023/08/29 08:01:14;;;;;;;0.00;0.00;;;;;;;;;;6270658;28;20433;-89
2023/08/29 08:04:14;;;;;;;0.00;0.00;;;;;;;;;;6251271;28;20582;-88
2023/08/29 08:07:15;;;;;;;0.00;0.00;;;;;;;;;;6267190;28;20025;-88
2023/08/29 08:10:17;;;;;;;0.00;0.00;;;;;;;;;;6251000;28;20403;-87
2023/08/29 08:13:18;;;;;;;0.00;0.00;;;;;;;;;;6269751;28;20013;-87
2023/08/29 08:16:18;;;;;;;0.00;0.00;;;;;;;;;;6251783;28;20029;-87
2023/08/29 08:19:18;;;;;;;0.00;0.00;;;;;;;;;;6270174;28;20482;-87
2023/08/29 08:22:19;;;;;;;0.00;0.00;;;;;;;;;;6250520;28;20028;-89
2023/08/29 08:25:19;;;;;;;0.10;0.10;;;;;;;;;;6262928;28;20501;-88
2023/08/29 08:28:19;;;;;;;0.00;0.00;;;;;;;;;;6251384;28;20020;-87
2023/08/29 08:31:20;;;;;;;0.00;0.00;;;;;;;;;;6266828;28;20087;-87
2023/08/29 08:34:20;;;;;;;0.00;0.00;;;;;;;;;;6269005;28;20017;-88
2023/08/29 08:37:21;;;;;;;0.00;0.00;;;;;;;;;;6251769;28;20021;-90
2023/08/29 08:40:21;;;;;;;0.00;0.00;;;;;;;;;;6266202;28;20012;-91
2023/08/29 08:43:22;;;;;;;0.00;0.00;;;;;;;;;;6267484;28;20468;-92
2023/08/29 08:46:22;;;;;;;0.00;0.00;;;;;;;;;;6266629;28;20490;-92
2023/08/29 08:49:23;;;;;;;0.00;0.00;;;;;;;;;;6247601;28;20044;-91
2023/08/29 08:52:23;;;;;;;0.00;0.00;;;;;;;;;;6269267;28;20087;-91
2023/08/29 08:55:23;;;;;;;0.00;0.00;;;;;;;;;;6270120;28;20092;-92
2023/08/29 08:58:24;;;;;;;0.00;0.00;;;;;;;;;;6269312;28;20012;-90
2023/08/29 09:01:24;;;;;;;0.00;0.00;;;;;;;;;;6251069;28;20316;-92
2023/08/29 09:04:24;;;;;;;0.00;0.00;;;;;;;;;;6270160;28;20112;-91
2023/08/29 09:07:24;;;;;;;0.00;0.00;;;;;;;;;;6269090;28;20775;-91
2023/08/29 09:10:25;;;;;;;0.00;0.00;;;;;;;;;;6268425;28;20095;-92
2023/08/29 09:13:26;;;;;;;0.00;0.00;;;;;;;;;;6263403;28;20366;-92
2023/08/29 09:16:26;;;;;;;0.00;0.00;;;;;;;;;;6245746;28;20025;-92
2023/08/29 09:19:29;;;;;;;0.00;0.00;;;;;;;;;;6268561;28;20536;-91
2023/08/29 09:22:29;;;;;;;0.00;0.00;;;;;;;;;;6268806;28;20017;-91
2023/08/29 09:25:29;;;;;;;0.00;0.00;;;;;;;;;;6250249;28;20513;-92
2023/08/29 09:28:30;;;;;;;0.00;0.00;;;;;;;;;;6268036;28;20017;-87
2023/08/29 09:31:30;;;;;;;0.00;0.00;;;;;;;;;;6247052;28;20045;-87
2023/08/29 09:34:30;;;;;;;0.00;0.00;;;;;;;;;;6269164;28;20013;-87
2023/08/29 09:37:31;;;;;;;0.00;0.00;;;;;;;;;;6252612;28;20071;-88
2023/08/29 09:40:44;;;;;;;0.00;0.00;;;;;;;;;;6264268;28;20151;-88
2023/08/29 09:43:47;;;;;;;0.00;0.00;;;;;;;;;;6244659;28;20387;-87
2023/08/29 09:46:48;;;;;;;0.00;0.00;;;;;;;;;;6265671;28;20099;-88
2023/08/29 09:49:48;;;;;;;0.00;0.00;;;;;;;;;;6267462;28;20483;-93
2023/08/29 09:52:51;;;;;;;0.00;0.00;;;;;;;;;;6268359;28;20502;-93
2023/08/29 09:55:58;;;;;;;0.00;0.00;;;;;;;;;;6250128;28;20036;-93
2023/08/29 09:58:59;;;;;;;0.00;0.00;;;;;;;;;;6249404;28;20021;-93
2023/08/29 10:02:00;;;;;;;0.00;0.00;;;;;;;;;;6250402;28;20021;-93
2023/08/29 10:05:06;;;;;;;0.00;0.00;;;;;;;;;;6271851;28;20071;-93
2023/08/29 10:08:21;;;;;;;0.00;0.00;;;;;;;;;;6266924;28;20013;-92
2023/08/29 10:11:22;;;;;;;0.00;0.00;;;;;;;;;;6268061;28;20048;-92
2023/08/29 10:14:23;;;;;;;0.00;0.00;;;;;;;;;;6268416;28;20440;-93
2023/08/29 10:17:24;;;;;;;0.00;0.00;;;;;;;;;;6268068;28;20021;-93
2023/08/29 10:20:24;;;;;;;;;;;;;;;;;;6250341;28;20278;-93
2023/08/29 10:23:25;;;;;;;0.00;0.00;;;;;;;;;;6258518;28;19908;-93
2023/08/29 10:26:25;;;;;;;;;;;;;;;;;;6251011;28;20029;-93
2023/08/29 10:29:26;;;;;;;0.00;0.00;;;;;;;;;;6261318;28;19909;-93
2023/08/29 10:32:27;;;;;;;0.00;0.00;;;;;;;;;;6267535;28;20057;-93
2023/08/29 10:35:31;;;;;;;0.00;0.00;;;;;;;;;;6268095;28;20013;-93
2023/08/29 10:38:31;;;;;;;0.00;0.00;;;;;;;;;;6265098;28;20032;-87
2023/08/29 10:41:51;;;;;;;0.00;0.00;;;;;;;;;;6263157;28;20052;-87
2023/08/29 10:44:53;;;;;;;0.00;0.00;;;;;;;;;;6258558;28;20028;-86
2023/08/29 10:47:53;;;;;;;0.00;0.00;;;;;;;;;;6248737;28;20047;-87
2023/08/29 10:51:10;;;;;;;0.00;0.00;;;;;;;;;;6261069;28;20472;-87
2023/08/29 10:54:10;;;;;;;0.00;0.00;;;;;;;;;;6274179;28;20024;-86
2023/08/29 10:57:27;;;;;;;0.00;0.00;;;;;;;;;;6244629;28;20479;-88
2023/08/29 11:00:51;;;;;;;0.00;0.00;;;;;;;;;;6258989;28;20039;-87
2023/08/29 11:03:51;;;;;;;0.00;0.00;;;;;;;;;;6252238;28;20044;-86
2023/08/29 11:06:53;;;;;;;0.00;0.00;;;;;;;;;;6262459;28;20414;-87
2023/08/29 11:10:12;;;;;;;0.00;0.00;;;;;;;;;;6248350;28;20016;-86
2023/08/29 11:13:15;;;;;;;0.00;0.00;;;;;;;;;;6271114;28;20033;-85
2023/08/29 11:16:15;;;;;;;0.00;0.00;;;;;;;;;;6267571;28;20025;-86
2023/08/29 11:19:16;;;;;;;0.00;0.00;;;;;;;;;;6251786;28;20067;-85
2023/08/29 11:22:16;;;;;;;0.00;0.00;;;;;;;;;;6250442;28;20036;-85
2023/08/29 11:25:17;;;;;;;0.00;0.00;;;;;;;;;;6270526;28;20460;-86
2023/08/29 11:28:20;;;;;;;0.00;0.00;;;;;;;;;;6277397;28;20028;-85
2023/08/29 11:31:20;;;;;;;0.00;0.00;;;;;;;;;;6270393;28;20430;-85
2023/08/29 11:34:21;;;;;;;0.00;0.00;;;;;;;;;;6252352;28;20031;-84
2023/08/29 11:37:24;;;;;;;0.00;0.00;;;;;;;;;;6270886;28;20052;-86
2023/08/29 11:40:24;;;;;;;0.00;0.00;;;;;;;;;;6253733;28;20025;-86
2023/08/29 11:43:24;;;;;;;0.00;0.00;;;;;;;;;;6270501;28;20024;-86
2023/08/29 11:46:34;;;;;;;0.00;0.00;;;;;;;;;;6270395;28;20111;-86
2023/08/29 11:49:35;;;;;;;0.00;0.00;;;;;;;;;;6266532;28;20104;-86
2023/08/29 11:52:35;;;;;;;0.00;0.00;;;;;;;;;;6233395;28;20435;-85
2023/08/29 11:55:35;;;;;;;0.00;0.00;;;;;;;;;;6251367;28;20025;-85
2023/08/29 11:58:37;;;;;;;0.00;0.00;;;;;;;;;;6269054;28;20091;-86
2023/08/29 12:01:37;;;;;;;0.00;0.00;;;;;;;;;;6272635;28;20491;-87
2023/08/29 12:04:39;;;;;;;0.00;0.00;;;;;;;;;;6275741;28;20024;-86
2023/08/29 12:07:39;;;;;;;;;;;;;;;;;;6236203;28;20111;-92
2023/08/29 12:10:49;;;;;;;0.00;0.00;;;;;;;;;;6269457;28;19923;-93
2023/08/29 12:14:01;;;;;;;0.00;0.00;;;;;;;;;;6269221;28;20024;-92
2023/08/29 12:17:03;;;;;;;0.00;0.00;;;;;;;;;;6267176;28;20032;-92
2023/08/29 12:20:24;;;;;;;0.00;0.00;;;;;;;;;;6268751;28;20464;-93
2023/08/29 12:23:25;;;;;;;0.00;0.00;;;;;;;;;;6251618;28;20036;-92
2023/08/29 12:26:26;;;;;;;0.00;0.00;;;;;;;;;;6269719;28;20067;-91
2023/08/29 12:29:26;;;;;;;0.00;0.00;;;;;;;;;;6265023;28;20471;-92
2023/08/29 12:32:27;;;;;;;0.00;0.00;;;;;;;;;;6269650;28;20431;-92
2023/08/29 12:35:27;;;;;;;0.00;0.00;;;;;;;;;;6266992;28;20036;-92
2023/08/29 12:38:27;;;;;;;0.00;0.00;;;;;;;;;;6250328;28;20025;-91
2023/08/29 12:41:28;;;;;;;0.00;0.00;;;;;;;;;;6265830;28;20029;-92
2023/08/29 12:44:28;;;;;;;0.00;0.00;;;;;;;;;;6266944;28;20092;-92
2023/08/29 12:47:28;;;;;;;0.00;0.00;;;;;;;;;;6268621;28;20025;-91
2023/08/29 12:50:31;;;;;;;0.00;0.00;;;;;;;;;;6273028;28;20013;-93
2023/08/29 12:53:31;;;;;;;0.00;0.00;;;;;;;;;;6268780;28;20025;-90
2023/08/29 12:56:32;;;;;;;0.00;0.00;;;;;;;;;;6250141;28;20029;-92
2023/08/29 12:59:33;;;;;;;0.00;0.00;;;;;;;;;;6268885;28;20021;-85
2023/08/29 13:02:34;;;;;;;0.00;0.00;;;;;;;;;;6267250;28;20430;-84
2023/08/29 13:05:34;;;;;;;0.00;0.00;;;;;;;;;;6247459;28;20110;-85
2023/08/29 13:08:34;;;;;;;0.00;0.00;;;;;;;;;;6247514;28;20025;-86
2023/08/29 13:11:35;;;;;;;0.10;0.10;;;;;;;;;;6247225;28;20438;-87
2023/08/29 13:14:35;;;;;;;0.00;0.00;;;;;;;;;;6251449;28;20470;-86
2023/08/29 13:17:35;;;;;;;0.00;0.00;;;;;;;;;;6262780;28;20369;-91
2023/08/29 13:20:35;;;;;;;0.00;0.00;;;;;;;;;;6248925;28;20139;-91
2023/08/29 13:23:36;;;;;;;0.07;0.07;;;;;;;;;;6266353;28;20391;-91
2023/08/29 13:26:36;;;;;;;0.00;0.00;;;;;;;;;;6263591;28;20725;-88
2023/08/29 13:29:36;;;;;;;0.00;0.00;;;;;;;;;;6263288;28;20021;-88
2023/08/29 13:32:37;;;;;;;0.00;0.00;;;;;;;;;;6259217;28;20025;-88
2023/08/29 13:35:37;;;;;;;0.00;0.00;;;;;;;;;;6262093;28;20025;-88
2023/08/29 13:38:37;;;;;;;0.00;0.00;;;;;;;;;;6249251;28;20407;-88
2023/08/29 13:41:37;;;;;;;0.00;0.00;;;;;;;;;;6266701;28;20025;-88
2023/08/29 13:44:38;;;;;;;0.00;0.00;;;;;;;;;;6247051;28;20103;-88
2023/08/29 13:47:38;;;;;;;0.00;0.00;;;;;;;;;;6259740;28;20024;-88
2023/08/29 13:50:39;;;;;;;0.10;0.10;;;;;;;;;;6267002;28;20391;-89
2023/08/29 13:53:40;;;;;;;0.00;0.00;;;;;;;;;;6267194;28;20100;-87
2023/08/29 13:56:43;;;;;;;0.00;0.00;;;;;;;;;;6267368;28;20387;-86
2023/08/29 13:59:43;;;;;;;0.00;0.00;;;;;;;;;;6267025;28;20021;-86
2023/08/29 14:02:46;;;;;;;0.00;0.00;;;;;;;;;;6267403;28;20391;-86
2023/08/29 14:05:46;;;;;;;0.03;0.03;;;;;;;;;;6274171;28;20025;-85
2023/08/29 14:08:48;;;;;;;0.00;0.00;;;;;;;;;;6266914;28;20566;-83
2023/08/29 14:11:48;;;;;;;0.00;0.00;;;;;;;;;;6236678;28;20133;-83
2023/08/29 14:14:48;;;;;;;0.10;0.10;;;;;;;;;;6224664;28;20018;-84
2023/08/29 14:17:49;;;;;;;0.00;0.00;;;;;;;;;;6239093;28;20025;-84
2023/08/29 14:20:50;;;;;;;0.00;0.00;;;;;;;;;;6223193;28;20447;-84
2023/08/29 14:23:51;;;;;;;0.10;0.10;;;;;;;;;;6222083;28;20076;-84
2023/08/29 14:26:51;;;;;;;0.00;0.00;;;;;;;;;;6247622;28;20021;-85
2023/08/29 14:29:51;;;;;;;0.00;0.00;;;;;;;;;;6238079;28;20116;-83
2023/08/29 14:32:52;;;;;;;0.10;0.10;;;;;;;;;;6226131;28;20145;-83
2023/08/29 14:35:56;;;;;;;0.10;0.10;;;;;;;;;;6239962;28;20025;-87
2023/08/29 14:38:56;;;;;;;0.00;0.00;;;;;;;;;;6222174;28;20022;-88
2023/08/29 14:41:57;;;;;;;0.00;0.00;;;;;;;;;;6245520;28;20392;-92
2023/08/29 14:44:57;;;;;;;0.10;0.10;;;;;;;;;;6229772;22;20050;-83
2023/08/29 14:47:57;;;;;;;0.10;0.10;;;;;;;;;;6183039;28;20030;-88
2023/08/29 14:50:57;;;;;;;0.10;0.10;;;;;;;;;;6198794;28;20136;-88
2023/08/29 14:54:02;;;;;;;0.10;0.10;;;;;;;;;;6181783;28;20042;-88
2023/08/29 14:57:03;;;;;;;0.10;0.10;;;;;;;;;;6198077;28;20026;-83
2023/08/29 15:00:05;;;;;;;;;;;;;;;;;;6197026;28;20860;-84
2023/08/29 15:03:05;;;;;;;;;;;;;;;;;;6191388;28;19924;-84
2023/08/29 15:06:08;;;;;;;0.08;0.08;;;;;;;;;;6196755;28;19914;-84
2023/08/29 15:09:08;;;;;;;0.05;0.05;;;;;;;;;;6181816;28;20027;-85
2023/08/29 15:12:08;;;;;;;0.00;0.00;;;;;;;;;;6196359;28;20101;-84
2023/08/29 15:15:08;;;;;;;0.00;0.00;;;;;;;;;;6197286;28;20022;-84
2023/08/29 15:18:09;;;;;;;0.00;0.00;;;;;;;;;;6196338;28;20026;-77
2023/08/29 15:21:09;;;;;;;0.00;0.00;;;;;;;;;;6196349;28;20034;-77
2023/08/29 15:24:09;;;;;;;0.00;0.00;;;;;;;;;;6200040;28;20014;-77
2023/08/29 15:27:09;;;;;;;0.00;0.00;;;;;;;;;;6193824;28;20096;-78
2023/08/29 15:30:10;;;;;;;0.00;0.00;;;;;;;;;;6178178;28;20011;-78
2023/08/29 15:33:10;;;;;;;0.00;0.00;;;;;;;;;;6195572;28;20010;-78
2023/08/29 15:36:10;;;;;;;0.00;0.00;;;;;;;;;;6177287;28;20477;-78
2023/08/29 15:39:10;;;;;;;0.00;0.00;;;;;;;;;;6178101;28;20018;-78
2023/08/29 15:42:10;;;;;;;0.00;0.00;;;;;;;;;;6194323;28;20014;-79
2023/08/29 15:45:11;;;;;;;0.00;0.00;;;;;;;;;;6197093;28;20050;-79
2023/08/29 15:48:11;;;;;;;0.00;0.00;;;;;;;;;;6196012;28;20026;-80
2023/08/29 15:51:14;;;;;;;0.00;0.00;;;;;;;;;;6191814;28;20485;-80
2023/08/29 15:54:14;;;;;;;0.10;0.10;;;;;;;;;;6190240;28;20517;-81
2023/08/29 15:57:19;;;;;;;0.10;0.10;;;;;;;;;;6192533;28;20029;-82
2023/08/29 16:00:19;;;;;;;0.10;0.10;;;;;;;;;;6196449;28;20022;-81
2023/08/29 16:03:26;;;;;;;0.00;0.00;;;;;;;;;;6196516;28;20014;-81
2023/08/29 16:06:27;;;;;;;0.00;0.00;;;;;;;;;;6196204;28;20019;-79
2023/08/29 16:09:29;;;;;;;0.00;0.00;;;;;;;;;;6196118;28;20461;-79
2023/08/29 16:12:31;;;;;;;0.10;0.10;;;;;;;;;;6193364;28;20033;-80
2023/08/29 16:15:31;;;;;;;0.03;0.03;;;;;;;;;;6177723;28;20022;-79
2023/08/29 16:18:32;;;;;;;0.00;0.00;;;;;;;;;;6195853;28;20454;-79
2023/08/29 16:21:33;;;;;;;;;;;;;;;;;;6178855;28;20114;-79
2023/08/29 16:24:33;;;;;;;0.08;0.08;;;;;;;;;;6191246;28;19931;-79
2023/08/29 16:27:35;;;;;;;0.00;0.00;;;;;;;;;;6178154;28;20023;-79
2023/08/29 16:30:35;;;;;;;0.00;0.00;;;;;;;;;;6191888;28;20034;-79
2023/08/29 16:33:35;;;;;;;0.00;0.00;;;;;;;;;;6189055;28;20517;-80
2023/08/29 16:36:35;;;;;;;0.00;0.00;;;;;;;;;;6186871;28;20095;-80
2023/08/29 16:39:39;;;;;;;0.00;0.00;;;;;;;;;;6194988;28;20020;-80
2023/08/29 16:42:40;;;;;;;0.00;0.00;;;;;;;;;;6174832;28;20026;-81
2023/08/29 16:45:40;;;;;;;0.00;0.00;;;;;;;;;;6192358;28;20042;-81
2023/08/29 16:48:40;;;;;;;0.00;0.00;;;;;;;;;;6195313;28;20030;-82
2023/08/29 16:51:41;;;;;;;0.00;0.00;;;;;;;;;;6193959;28;20038;-82
2023/08/29 16:54:42;;;;;;;;;;;;;;;;;;6194578;28;20022;-82
2023/08/29 16:57:43;;;;;;;0.00;0.00;;;;;;;;;;6194565;28;19925;-82
2023/08/29 17:00:45;;;;;;;;;;;;;;;;;;6156239;28;20493;-82
2023/08/29 17:03:45;;;;;;;0.00;0.00;;;;;;;;;;6188830;28;19965;-82
2023/08/29 17:06:46;;;;;;;0.00;0.00;;;;;;;;;;6193031;28;20033;-82
2023/08/29 17:09:46;;;;;;;0.00;0.00;;;;;;;;;;6190173;28;20053;-81
2023/08/29 17:12:47;;;;;;;0.00;0.00;;;;;;;;;;6191204;28;20026;-82
2023/08/29 17:15:47;;;;;;;0.00;0.00;;;;;;;;;;6194866;28;20026;-81
2023/08/29 17:18:48;;;;;;;;;;;;;;;;;;6193243;28;20050;-83
2023/08/29 17:21:49;;;;;;;0.00;0.00;;;;;;;;;;6192943;28;20380;-82
2023/08/29 17:24:50;;;;;;;0.00;0.00;;;;;;;;;;6191495;28;20038;-82
2023/08/29 17:27:50;;;;;;;0.00;0.00;;;;;;;;;;6193738;28;20477;-82
2023/08/29 17:30:51;;;;;;;0.00;0.00;;;;;;;;;;6188749;28;20121;-83
2023/08/29 17:33:51;;;;;;;0.00;0.00;;;;;;;;;;6187310;28;20788;-83
2023/08/29 17:36:51;;;;;;;0.00;0.00;;;;;;;;;;6193718;28;20034;-82
2023/08/29 17:39:51;;;;;;;0.00;0.00;;;;;;;;;;6190632;28;20051;-81
2023/08/29 17:42:51;;;;;;;0.00;0.00;;;;;;;;;;6187570;28;20100;-83
2023/08/29 17:45:56;;;;;;;0.00;0.00;;;;;;;;;;6179296;28;20053;-82
2023/08/29 17:48:56;;;;;;;0.10;0.10;;;;;;;;;;6175310;28;20111;-82
2023/08/29 17:51:56;;;;;;;0.00;0.00;;;;;;;;;;6192271;28;20147;-82
2023/08/29 17:54:56;;;;;;;0.00;0.00;;;;;;;;;;6193447;28;20054;-82
2023/08/29 17:57:58;;;;;;;0.00;0.00;;;;;;;;;;6189100;28;20101;-82
2023/08/29 18:00:59;;;;;;;0.00;0.00;;;;;;;;;;6189507;28;20011;-81
2023/08/29 18:03:59;;;;;;;0.00;0.00;;;;;;;;;;6185872;28;20441;-82
2023/08/29 18:06:59;;;;;;;0.10;0.10;;;;;;;;;;6186786;28;20022;-81
2023/08/29 18:10:10;;;;;;;0.10;0.10;;;;;;;;;;6191373;28;20182;-82